Wetterdaten: Freitag, 17.09.2010
Datum Zeit Temp. A. Feuchte A. Luftdruck Regen Wind Richtung Richtung Sonnenschein UV Solar Windben
17.09.2010 00:00 11,6 C 90 % 1008,2 hPa 0,0 mm 0,0 km/h (0 Bft) S-SW 202 0 min 0 UV-I 0 W/m 1,6 km/h (1 Bft)
17.09.2010 00:10 11,6 C 91 % 1008,1 hPa 0,0 mm 0,0 km/h (0 Bft) S-SW 202 0 min 0 UV-I 0 W/m 1,6 km/h (1 Bft)
17.09.2010 00:20 11,6 C 91 % 1008,2 hPa 0,0 mm 0,0 km/h (0 Bft) S-SW 202 0 min 0 UV-I 0 W/m 1,6 km/h (1 Bft)
17.09.2010 00:30 11,6 C 91 % 1008,1 hPa 0,0 mm 0,0 km/h (0 Bft) SW 225 0 min 0 UV-I 0 W/m 4,8 km/h (1 Bft)
17.09.2010 00:40 11,4 C 91 % 1008,2 hPa 0,0 mm 1,6 km/h (1 Bft) SW 225 0 min 0 UV-I 0 W/m 8,0 km/h (2 Bft)
17.09.2010 00:50 11,3 C 91 % 1008,2 hPa 0,0 mm 1,6 km/h (1 Bft) SW 225 0 min 0 UV-I 0 W/m 8,0 km/h (2 Bft)
17.09.2010 01:00 11,3 C 91 % 1008,1 hPa 0,0 mm 1,6 km/h (1 Bft) W-SW 247 0 min 0 UV-I 0 W/m 8,0 km/h (2 Bft)
17.09.2010 01:10 11,3 C 91 % 1008,0 hPa 0,0 mm 1,6 km/h (1 Bft) SW 225 0 min 0 UV-I 0 W/m 6,4 km/h (2 Bft)
17.09.2010 01:20 11,3 C 91 % 1008,1 hPa 0,0 mm 1,6 km/h (1 Bft) W-SW 247 0 min 0 UV-I 0 W/m 6,4 km/h (2 Bft)
17.09.2010 01:30 11,2 C 91 % 1008,0 hPa 0,0 mm 1,6 km/h (1 Bft) W-SW 247 0 min 0 UV-I 0 W/m 6,4 km/h (2 Bft)
17.09.2010 01:40 11,2 C 91 % 1008,0 hPa 0,0 mm 0,0 km/h (0 Bft) W-SW 247 0 min 0 UV-I 0 W/m 3,2 km/h (1 Bft)
17.09.2010 01:50 11,2 C 91 % 1008,0 hPa 0,0 mm 1,6 km/h (1 Bft) S-SW 202 0 min 0 UV-I 0 W/m 6,4 km/h (2 Bft)
17.09.2010 02:00 11,2 C 91 % 1008,0 hPa 0,0 mm 0,0 km/h (0 Bft) SW 225 0 min 0 UV-I 0 W/m 3,2 km/h (1 Bft)
17.09.2010 02:10 11,2 C 91 % 1007,9 hPa 0,0 mm 1,6 km/h (1 Bft) SW 225 0 min 0 UV-I 0 W/m 9,7 km/h (2 Bft)
17.09.2010 02:20 11,2 C 91 % 1008,0 hPa 0,0 mm 1,6 km/h (1 Bft) SW 225 0 min 0 UV-I 0 W/m 8,0 km/h (2 Bft)
17.09.2010 02:30 11,3 C 91 % 1008,0 hPa 0,0 mm 0,0 km/h (0 Bft) W-SW 247 0 min 0 UV-I 0 W/m 4,8 km/h (1 Bft)
17.09.2010 02:40 11,2 C 91 % 1007,9 hPa 0,0 mm 0,0 km/h (0 Bft) SW 225 0 min 0 UV-I 0 W/m 4,8 km/h (1 Bft)
17.09.2010 02:50 11,2 C 91 % 1007,9 hPa 0,0 mm 0,0 km/h (0 Bft) W 270 0 min 0 UV-I 0 W/m 6,4 km/h (2 Bft)
17.09.2010 03:00 11,2 C 91 % 1007,9 hPa 0,0 mm 0,0 km/h (0 Bft) W 270 0 min 0 UV-I 0 W/m 4,8 km/h (1 Bft)
17.09.2010 03:10 11,1 C 91 % 1007,9 hPa 0,0 mm 0,0 km/h (0 Bft) W 270 0 min 0 UV-I 0 W/m 6,4 km/h (2 Bft)
17.09.2010 03:20 11,1 C 91 % 1007,9 hPa 0,0 mm 0,0 km/h (0 Bft) S-SW 202 0 min 0 UV-I 0 W/m 9,7 km/h (2 Bft)
17.09.2010 03:30 11,1 C 91 % 1007,9 hPa 0,0 mm 1,6 km/h (1 Bft) SW 225 0 min 0 UV-I 0 W/m 8,0 km/h (2 Bft)
17.09.2010 03:40 11,1 C 91 % 1007,8 hPa 0,0 mm 1,6 km/h (1 Bft) W-SW 247 0 min 0 UV-I 0 W/m 8,0 km/h (2 Bft)
17.09.2010 03:50 11,1 C 91 % 1007,8 hPa 0,0 mm 1,6 km/h (1 Bft) W-SW 247 0 min 0 UV-I 0 W/m 8,0 km/h (2 Bft)
17.09.2010 04:00 11,1 C 91 % 1007,7 hPa 0,0 mm 1,6 km/h (1 Bft) SW 225 0 min 0 UV-I 0 W/m 8,0 km/h (2 Bft)
17.09.2010 04:10 11,1 C 90 % 1007,5 hPa 0,0 mm 1,6 km/h (1 Bft) SW 225 0 min 0 UV-I 0 W/m 8,0 km/h (2 Bft)
17.09.2010 04:20 11,0 C 90 % 1007,5 hPa 0,0 mm 1,6 km/h (1 Bft) S-SW 202 0 min 0 UV-I 0 W/m 6,4 km/h (2 Bft)
17.09.2010 04:30 10,9 C 90 % 1007,4 hPa 0,0 mm 3,2 km/h (1 Bft) W-SW 247 0 min 0 UV-I 0 W/m 9,7 km/h (2 Bft)
17.09.2010 04:40 10,9 C 90 % 1007,4 hPa 0,0 mm 0,0 km/h (0 Bft) S-SW 202 0 min 0 UV-I 0 W/m 4,8 km/h (1 Bft)
17.09.2010 04:50 10,9 C 90 % 1007,3 hPa 0,0 mm 0,0 km/h (0 Bft) W-SW 247 0 min 0 UV-I 0 W/m 6,4 km/h (2 Bft)
17.09.2010 05:00 10,8 C 90 % 1007,3 hPa 0,0 mm 1,6 km/h (1 Bft) SW 225 0 min 0 UV-I 0 W/m 11,3 km/h (2 Bft)
17.09.2010 05:10 10,8 C 90 % 1007,3 hPa 0,0 mm 1,6 km/h (1 Bft) W-SW 247 0 min 0 UV-I 0 W/m 8,0 km/h (2 Bft)
17.09.2010 05:20 10,8 C 90 % 1007,3 hPa 1,3 mm 3,2 km/h (1 Bft) W-SW 247 0 min 0 UV-I 0 W/m 9,7 km/h (2 Bft)
17.09.2010 05:30 10,8 C 91 % 1007,5 hPa 0,8 mm 3,2 km/h (1 Bft) W 270 0 min 0 UV-I 0 W/m 9,7 km/h (2 Bft)
17.09.2010 05:40 10,8 C 91 % 1007,4 hPa 1,0 mm 4,8 km/h (1 Bft) W 270 0 min 0 UV-I 0 W/m 17,7 km/h (3 Bft)
17.09.2010 05:50 10,8 C 91 % 1007,4 hPa 0,5 mm 3,2 km/h (1 Bft) W-SW 247 0 min 0 UV-I 0 W/m 9,7 km/h (2 Bft)
17.09.2010 06:00 10,8 C 91 % 1007,6 hPa 0,0 mm 1,6 km/h (1 Bft) W-SW 247 0 min 0 UV-I 0 W/m 9,7 km/h (2 Bft)
17.09.2010 06:10 10,7 C 92 % 1007,7 hPa 0,0 mm 0,0 km/h (0 Bft) W 270 0 min 0 UV-I 0 W/m 9,7 km/h (2 Bft)
17.09.2010 06:20 10,8 C 92 % 1007,7 hPa 0,3 mm 1,6 km/h (1 Bft) W 270 0 min 0 UV-I 0 W/m 8,0 km/h (2 Bft)
17.09.2010 06:30 10,8 C 92 % 1007,8 hPa 0,0 mm 1,6 km/h (1 Bft) SW 225 0 min 0 UV-I 0 W/m 9,7 km/h (2 Bft)
17.09.2010 06:40 10,8 C 92 % 1007,9 hPa 0,0 mm 1,6 km/h (1 Bft) W-SW 247 0 min 0 UV-I 0 W/m 6,4 km/h (2 Bft)
17.09.2010 06:50 10,8 C 92 % 1008,0 hPa 0,0 mm 3,2 km/h (1 Bft) W 270 0 min 0 UV-I 0 W/m 9,7 km/h (2 Bft)
17.09.2010 07:00 10,7 C 92 % 1008,2 hPa 0,0 mm 3,2 km/h (1 Bft) W 270 0 min 0 UV-I 0 W/m 9,7 km/h (2 Bft)
17.09.2010 07:10 10,7 C 92 % 1008,3 hPa 0,0 mm 3,2 km/h (1 Bft) W 270 0 min 0 UV-I 0 W/m 9,7 km/h (2 Bft)
17.09.2010 07:20 10,6 C 92 % 1008,5 hPa 0,0 mm 4,8 km/h (1 Bft) W-SW 247 0 min 0 UV-I 0 W/m 16,1 km/h (3 Bft)
17.09.2010 07:30 10,4 C 92 % 1008,8 hPa 0,0 mm 3,2 km/h (1 Bft) W 270 0 min 0 UV-I 5 W/m 11,3 km/h (2 Bft)
17.09.2010 07:40 10,3 C 92 % 1008,9 hPa 0,0 mm 4,8 km/h (1 Bft) W-SW 247 0 min 0 UV-I 16 W/m 14,5 km/h (3 Bft)
17.09.2010 07:50 10,2 C 92 % 1009,1 hPa 0,0 mm 4,8 km/h (1 Bft) W 270 0 min 0 UV-I 18 W/m 17,7 km/h (3 Bft)
17.09.2010 08:00 10,1 C 92 % 1009,2 hPa 0,0 mm 4,7 km/h (1 Bft) SW 230 0 min 0 UV-I 19 W/m 16,1 km/h (3 Bft)
17.09.2010 08:10 10,1 C 92 % 1009,3 hPa 0,0 mm 4,8 km/h (1 Bft) W 270 0 min 0 UV-I 72 W/m 14,5 km/h (3 Bft)
17.09.2010 08:20 10,2 C 92 % 1009,3 hPa 0,0 mm 3,2 km/h (1 Bft) W 270 0 min 0 UV-I 16 W/m 9,7 km/h (2 Bft)
17.09.2010 08:30 10,2 C 92 % 1009,4 hPa 0,0 mm 6,4 km/h (2 Bft) SW 225 0 min 0 UV-I 91 W/m 17,7 km/h (3 Bft)
17.09.2010 08:40 10,3 C 92 % 1009,3 hPa 0,0 mm 4,8 km/h (1 Bft) W-SW 247 10 min 0 UV-I 135 W/m 17,7 km/h (3 Bft)
17.09.2010 08:50 10,5 C 92 % 1009,4 hPa 0,0 mm 4,8 km/h (1 Bft) W-SW 247 0 min 0 UV-I 83 W/m 14,5 km/h (3 Bft)
17.09.2010 09:00 10,6 C 92 % 1009,5 hPa 0,0 mm 3,2 km/h (1 Bft) W-SW 247 0 min 0 UV-I 79 W/m 16,1 km/h (3 Bft)
17.09.2010 09:10 10,7 C 92 % 1009,7 hPa 0,0 mm 4,8 km/h (1 Bft) SW 225 0 min 1 UV-I 90 W/m 12,9 km/h (3 Bft)
17.09.2010 09:20 10,8 C 92 % 1009,8 hPa 0,0 mm 4,8 km/h (1 Bft) W 270 0 min 1 UV-I 113 W/m 19,3 km/h (3 Bft)
17.09.2010 09:30 10,9 C 92 % 1009,9 hPa 0,0 mm 3,2 km/h (1 Bft) W-SW 247 0 min 1 UV-I 93 W/m 11,3 km/h (2 Bft)
17.09.2010 09:40 11,0 C 91 % 1009,9 hPa 0,0 mm 3,2 km/h (1 Bft) W 270 0 min 1 UV-I 121 W/m 11,3 km/h (2 Bft)
17.09.2010 09:50 11,1 C 91 % 1010,0 hPa 0,0 mm 3,2 km/h (1 Bft) W-SW 247 10 min 1 UV-I 236 W/m 16,1 km/h (3 Bft)
17.09.2010 10:00 11,3 C 90 % 1010,1 hPa 0,0 mm 4,8 km/h (1 Bft) W-SW 247 0 min 1 UV-I 169 W/m 16,1 km/h (3 Bft)
17.09.2010 10:10 11,4 C 89 % 1010,3 hPa 0,0 mm 6,4 km/h (2 Bft) W-SW 247 0 min 1 UV-I 121 W/m 24,1 km/h (4 Bft)
17.09.2010 10:20 11,3 C 88 % 1010,3 hPa 0,0 mm 8,0 km/h (2 Bft) W-SW 247 0 min 1 UV-I 204 W/m 22,5 km/h (4 Bft)
17.09.2010 10:30 11,4 C 87 % 1010,3 hPa 0,0 mm 6,4 km/h (2 Bft) W 270 0 min 1 UV-I 176 W/m 16,1 km/h (3 Bft)
17.09.2010 10:40 11,6 C 87 % 1010,4 hPa 0,0 mm 4,8 km/h (1 Bft) W 270 0 min 1 UV-I 195 W/m 16,1 km/h (3 Bft)
17.09.2010 10:50 11,8 C 86 % 1010,4 hPa 0,0 mm 6,4 km/h (2 Bft) W 270 0 min 1 UV-I 199 W/m 24,1 km/h (4 Bft)
17.09.2010 11:00 11,9 C 85 % 1010,4 hPa 0,0 mm 6,4 km/h (2 Bft) W-SW 247 0 min 1 UV-I 162 W/m 17,7 km/h (3 Bft)
17.09.2010 11:10 12,2 C 85 % 1010,5 hPa 0,0 mm 4,8 km/h (1 Bft) W 270 0 min 2 UV-I 232 W/m 17,7 km/h (3 Bft)
17.09.2010 11:20 12,4 C 83 % 1010,6 hPa 0,0 mm 8,0 km/h (2 Bft) W-SW 247 0 min 2 UV-I 262 W/m 20,9 km/h (4 Bft)
17.09.2010 11:30 12,6 C 81 % 1010,6 hPa 0,0 mm 8,0 km/h (2 Bft) W-SW 247 0 min 2 UV-I 204 W/m 19,3 km/h (3 Bft)
17.09.2010 11:40 12,6 C 81 % 1010,7 hPa 0,0 mm 8,0 km/h (2 Bft) W 270 0 min 1 UV-I 190 W/m 20,9 km/h (4 Bft)
17.09.2010 11:50 12,6 C 81 % 1010,8 hPa 0,0 mm 6,4 km/h (2 Bft) W 270 0 min 1 UV-I 188 W/m 20,9 km/h (4 Bft)
17.09.2010 12:00 12,7 C 81 % 1010,8 hPa 0,0 mm 8,0 km/h (2 Bft) W 270 0 min 2 UV-I 225 W/m 19,3 km/h (3 Bft)
17.09.2010 12:10 12,9 C 80 % 1010,8 hPa 0,0 mm 9,7 km/h (2 Bft) W 270 0 min 3 UV-I 267 W/m 20,9 km/h (4 Bft)
17.09.2010 12:20 13,3 C 78 % 1010,7 hPa 0,0 mm 8,0 km/h (2 Bft) W-SW 247 0 min 2 UV-I 281 W/m 22,5 km/h (4 Bft)
17.09.2010 12:30 13,6 C 75 % 1010,8 hPa 0,0 mm 8,0 km/h (2 Bft) W-SW 247 10 min 4 UV-I 427 W/m 22,5 km/h (4 Bft)
17.09.2010 12:40 14,4 C 72 % 1010,9 hPa 0,0 mm 9,7 km/h (2 Bft) W-SW 247 10 min 4 UV-I 786 W/m 29,0 km/h (5 Bft)
17.09.2010 12:50 15,0 C 71 % 1010,9 hPa 0,0 mm 9,7 km/h (2 Bft) W-SW 247 10 min 4 UV-I 819 W/m 25,7 km/h (4 Bft)
17.09.2010 13:00 14,4 C 71 % 1010,9 hPa 0,0 mm 11,3 km/h (2 Bft) W 270 0 min 1 UV-I 181 W/m 24,1 km/h (4 Bft)
17.09.2010 13:10 13,8 C 72 % 1011,0 hPa 0,0 mm 8,0 km/h (2 Bft) W 270 0 min 1 UV-I 114 W/m 22,5 km/h (4 Bft)
17.09.2010 13:20 13,7 C 72 % 1011,0 hPa 0,0 mm 4,8 km/h (1 Bft) W-SW 247 0 min 2 UV-I 188 W/m 17,7 km/h (3 Bft)
17.09.2010 13:30 14,0 C 72 % 1010,9 hPa 0,0 mm 4,8 km/h (1 Bft) W-SW 247 0 min 2 UV-I 214 W/m 17,7 km/h (3 Bft)
17.09.2010 13:40 14,6 C 69 % 1010,9 hPa 0,0 mm 8,0 km/h (2 Bft) W 270 10 min 4 UV-I 823 W/m 20,9 km/h (4 Bft)
17.09.2010 13:50 15,2 C 69 % 1011,0 hPa 0,0 mm 8,0 km/h (2 Bft) W-SW 247 10 min 4 UV-I 793 W/m 29,0 km/h (5 Bft)
17.09.2010 14:00 14,9 C 66 % 1011,0 hPa 0,0 mm 9,7 km/h (2 Bft) W 270 10 min 4 UV-I 740 W/m 22,5 km/h (4 Bft)
17.09.2010 14:10 15,7 C 63 % 1011,0 hPa 0,0 mm 9,7 km/h (2 Bft) W-SW 247 10 min 4 UV-I 754 W/m 24,1 km/h (4 Bft)
17.09.2010 14:20 15,1 C 67 % 1011,1 hPa 0,0 mm 8,0 km/h (2 Bft) W 270 0 min 1 UV-I 135 W/m 19,3 km/h (3 Bft)
17.09.2010 14:30 14,0 C 72 % 1011,1 hPa 0,0 mm 4,8 km/h (1 Bft) W-NW 292 10 min 3 UV-I 817 W/m 14,5 km/h (3 Bft)
17.09.2010 14:40 14,7 C 69 % 1011,2 hPa 0,0 mm 3,2 km/h (1 Bft) N-NW 337 10 min 3 UV-I 701 W/m 11,3 km/h (2 Bft)
17.09.2010 14:50 15,1 C 70 % 1011,2 hPa 0,0 mm 3,2 km/h (1 Bft) W 270 10 min 3 UV-I 719 W/m 14,5 km/h (3 Bft)
17.09.2010 15:00 14,7 C 71 % 1011,3 hPa 0,0 mm 4,8 km/h (1 Bft) W-NW 292 0 min 2 UV-I 193 W/m 19,3 km/h (3 Bft)
17.09.2010 15:10 14,2 C 70 % 1011,2 hPa 0,0 mm 6,4 km/h (2 Bft) W 270 0 min 1 UV-I 123 W/m 19,3 km/h (3 Bft)
17.09.2010 15:20 13,8 C 69 % 1011,3 hPa 0,0 mm 4,8 km/h (1 Bft) W 270 0 min 1 UV-I 121 W/m 17,7 km/h (3 Bft)
17.09.2010 15:30 13,6 C 70 % 1011,4 hPa 0,0 mm 6,4 km/h (2 Bft) W 270 0 min 1 UV-I 90 W/m 17,7 km/h (3 Bft)
17.09.2010 15:40 13,2 C 74 % 1011,4 hPa 0,0 mm 6,4 km/h (2 Bft) W 270 0 min 0 UV-I 46 W/m 19,3 km/h (3 Bft)
17.09.2010 15:50 12,7 C 79 % 1011,5 hPa 0,0 mm 6,4 km/h (2 Bft) W 270 0 min 1 UV-I 206 W/m 16,1 km/h (3 Bft)
17.09.2010 16:00 12,9 C 77 % 1011,5 hPa 0,0 mm 5,4 km/h (1 Bft) W 259 10 min 2 UV-I 313 W/m 8,0 km/h (2 Bft)
17.09.2010 16:10 13,8 C 73 % 1011,5 hPa 0,0 mm 4,8 km/h (1 Bft) W 270 10 min 2 UV-I 664 W/m 16,1 km/h (3 Bft)
17.09.2010 16:20 14,8 C 69 % 1011,6 hPa 0,0 mm 3,2 km/h (1 Bft) W-SW 247 10 min 2 UV-I 513 W/m 14,5 km/h (3 Bft)
17.09.2010 16:30 15,2 C 66 % 1011,6 hPa 0,0 mm 8,0 km/h (2 Bft) W-SW 247 10 min 2 UV-I 482 W/m 17,7 km/h (3 Bft)
17.09.2010 16:40 15,2 C 67 % 1011,5 hPa 0,0 mm 6,4 km/h (2 Bft) SW 225 10 min 2 UV-I 476 W/m 20,9 km/h (4 Bft)
17.09.2010 16:50 15,2 C 66 % 1011,5 hPa 0,0 mm 4,8 km/h (1 Bft) W-SW 247 10 min 1 UV-I 441 W/m 22,5 km/h (4 Bft)
17.09.2010 17:00 15,3 C 66 % 1011,6 hPa 0,0 mm 6,4 km/h (2 Bft) W 270 10 min 1 UV-I 443 W/m 22,5 km/h (4 Bft)
17.09.2010 17:10 14,9 C 68 % 1011,7 hPa 0,0 mm 6,4 km/h (2 Bft) W 270 10 min 1 UV-I 355 W/m 24,1 km/h (4 Bft)
17.09.2010 17:20 14,5 C 68 % 1011,7 hPa 0,0 mm 8,0 km/h (2 Bft) W 270 0 min 1 UV-I 105 W/m 20,9 km/h (4 Bft)
17.09.2010 17:30 14,2 C 69 % 1011,8 hPa 0,0 mm 6,4 km/h (2 Bft) W 270 0 min 1 UV-I 102 W/m 20,9 km/h (4 Bft)
17.09.2010 17:40 14,1 C 70 % 1011,8 hPa 0,0 mm 4,8 km/h (1 Bft) W 270 0 min 0 UV-I 63 W/m 16,1 km/h (3 Bft)
17.09.2010 17:50 13,9 C 72 % 1011,8 hPa 0,0 mm 6,4 km/h (2 Bft) W-NW 292 0 min 0 UV-I 40 W/m 17,7 km/h (3 Bft)
17.09.2010 18:00 13,2 C 78 % 1012,2 hPa 0,3 mm 4,8 km/h (1 Bft) W-NW 292 0 min 0 UV-I 5 W/m 19,3 km/h (3 Bft)
17.09.2010 18:10 12,3 C 83 % 1012,3 hPa 0,5 mm 6,4 km/h (2 Bft) W 270 0 min 0 UV-I 19 W/m 20,9 km/h (4 Bft)
17.09.2010 18:20 11,7 C 85 % 1012,3 hPa 0,3 mm 4,8 km/h (1 Bft) W 270 0 min 0 UV-I 23 W/m 17,7 km/h (3 Bft)
17.09.2010 18:30 11,3 C 86 % 1012,4 hPa 0,0 mm 3,2 km/h (1 Bft) W 270 0 min 0 UV-I 35 W/m 12,9 km/h (3 Bft)
17.09.2010 18:40 11,1 C 87 % 1012,5 hPa 0,0 mm 1,6 km/h (1 Bft) W 270 0 min 0 UV-I 30 W/m 9,7 km/h (2 Bft)
17.09.2010 18:50 11,2 C 87 % 1012,5 hPa 0,0 mm 1,6 km/h (1 Bft) W 270 10 min 0 UV-I 60 W/m 8,0 km/h (2 Bft)
17.09.2010 19:00 11,2 C 88 % 1012,7 hPa 0,0 mm 1,6 km/h (1 Bft) W-SW 247 10 min 0 UV-I 58 W/m 8,0 km/h (2 Bft)
17.09.2010 19:10 11,2 C 88 % 1012,7 hPa 0,0 mm 1,6 km/h (1 Bft) SW 225 10 min 0 UV-I 37 W/m 8,0 km/h (2 Bft)
17.09.2010 19:20 11,1 C 88 % 1012,9 hPa 0,0 mm 1,6 km/h (1 Bft) W-SW 247 10 min 0 UV-I 23 W/m 9,7 km/h (2 Bft)
17.09.2010 19:30 11,0 C 88 % 1013,1 hPa 0,0 mm 1,6 km/h (1 Bft) W 270 0 min 0 UV-I 18 W/m 9,7 km/h (2 Bft)
17.09.2010 19:40 10,9 C 88 % 1013,1 hPa 0,0 mm 1,6 km/h (1 Bft) W-SW 247 0 min 0 UV-I 9 W/m 9,7 km/h (2 Bft)
17.09.2010 19:50 10,8 C 88 % 1013,1 hPa 0,0 mm 0,0 km/h (0 Bft) SW 225 0 min 0 UV-I 0 W/m 6,4 km/h (2 Bft)
17.09.2010 20:00 10,6 C 88 % 1013,1 hPa 0,0 mm 1,6 km/h (1 Bft) SW 225 0 min 0 UV-I 0 W/m 8,0 km/h (2 Bft)
17.09.2010 20:10 10,5 C 88 % 1013,2 hPa 0,0 mm 1,6 km/h (1 Bft) W-SW 247 0 min 0 UV-I 0 W/m 8,0 km/h (2 Bft)
17.09.2010 20:20 10,5 C 88 % 1013,6 hPa 0,0 mm 3,2 km/h (1 Bft) W-SW 247 0 min 0 UV-I 0 W/m 11,3 km/h (2 Bft)
17.09.2010 20:30 10,4 C 87 % 1013,6 hPa 0,0 mm 1,6 km/h (1 Bft) W-SW 247 0 min 0 UV-I 0 W/m 9,7 km/h (2 Bft)
17.09.2010 20:40 10,4 C 87 % 1013,6 hPa 0,0 mm 1,6 km/h (1 Bft) W-SW 247 0 min 0 UV-I 0 W/m 11,3 km/h (2 Bft)
17.09.2010 20:50 10,3 C 87 % 1013,9 hPa 0,0 mm 3,2 km/h (1 Bft) W-SW 247 0 min 0 UV-I 0 W/m 11,3 km/h (2 Bft)
17.09.2010 21:00 10,2 C 87 % 1013,9 hPa 0,0 mm 1,6 km/h (1 Bft) W-SW 247 0 min 0 UV-I 0 W/m 8,0 km/h (2 Bft)
17.09.2010 21:10 10,1 C 87 % 1014,0 hPa 0,0 mm 1,6 km/h (1 Bft) W-SW 247 0 min 0 UV-I 0 W/m 8,0 km/h (2 Bft)
17.09.2010 21:20 9,9 C 88 % 1014,0 hPa 0,0 mm 1,6 km/h (1 Bft) W-SW 247 0 min 0 UV-I 0 W/m 6,4 km/h (2 Bft)
17.09.2010 21:30 9,8 C 88 % 1014,1 hPa 0,0 mm 0,0 km/h (0 Bft) W-SW 247 0 min 0 UV-I 0 W/m 4,8 km/h (1 Bft)
17.09.2010 21:40 9,7 C 87 % 1014,2 hPa 0,0 mm 1,6 km/h (1 Bft) W-SW 247 0 min 0 UV-I 0 W/m 8,0 km/h (2 Bft)
17.09.2010 21:50 9,6 C 88 % 1014,3 hPa 0,0 mm 0,0 km/h (0 Bft) W-SW 247 0 min 0 UV-I 0 W/m 3,2 km/h (1 Bft)
17.09.2010 22:00 9,3 C 88 % 1014,3 hPa 0,0 mm 0,0 km/h (0 Bft) W-SW 247 0 min 0 UV-I 0 W/m 1,6 km/h (1 Bft)
17.09.2010 22:10 9,2 C 88 % 1014,4 hPa 0,0 mm 0,0 km/h (0 Bft) W-SW 247 0 min 0 UV-I 0 W/m 4,8 km/h (1 Bft)
17.09.2010 22:20 9,1 C 88 % 1014,5 hPa 0,0 mm 0,0 km/h (0 Bft) W-SW 247 0 min 0 UV-I 0 W/m 1,6 km/h (1 Bft)
17.09.2010 22:30 9,0 C 89 % 1014,6 hPa 0,0 mm 0,0 km/h (0 Bft) W-SW 247 0 min 0 UV-I 0 W/m 8,0 km/h (2 Bft)
17.09.2010 22:40 9,1 C 89 % 1014,5 hPa 0,0 mm 0,0 km/h (0 Bft) W-SW 247 0 min 0 UV-I 0 W/m 6,4 km/h (2 Bft)
17.09.2010 22:50 9,4 C 89 % 1014,6 hPa 0,0 mm 1,6 km/h (1 Bft) W-SW 247 0 min 0 UV-I 0 W/m 9,7 km/h (2 Bft)
17.09.2010 23:00 9,4 C 89 % 1014,6 hPa 0,0 mm 0,0 km/h (0 Bft) W-SW 247 0 min 0 UV-I 0 W/m 6,4 km/h (2 Bft)
17.09.2010 23:10 9,4 C 89 % 1014,6 hPa 0,0 mm 0,0 km/h (0 Bft) W-SW 247 0 min 0 UV-I 0 W/m 4,8 km/h (1 Bft)
17.09.2010 23:20 9,6 C 90 % 1014,6 hPa 0,0 mm 1,6 km/h (1 Bft) W-SW 247 0 min 0 UV-I 0 W/m 6,4 km/h (2 Bft)
17.09.2010 23:30 9,7 C 90 % 1014,7 hPa 0,0 mm 1,6 km/h (1 Bft) W-SW 247 0 min 0 UV-I 0 W/m 8,0 km/h (2 Bft)
17.09.2010 23:40 9,8 C 90 % 1014,6 hPa 0,0 mm 1,6 km/h (1 Bft) W-SW 247 0 min 0 UV-I 0 W/m 8,0 km/h (2 Bft)
17.09.2010 23:50 9,8 C 90 % 1014,6 hPa 0,0 mm 1,6 km/h (1 Bft) W 270 0 min 0 UV-I 0 W/m 11,3 km/h (2 Bft)
_ Min-Zeit 22:30 14:10 04:50 - 00:00 - - - - - 00:00
Minimum _ 8,9 C 63 % 1007,3 hPa - 0,0 km/h (0 Bft) - - - - - 1,6 km/h (1 Bft)
_ Max-Zeit 14:10 06:10 23:30 05:20 13:00 - - 08:40 12:40 13:40 12:40
Maximum _ 15,9 C 92 % 1014,7 hPa 1,3 mm 11,3 km/h
W (2 Bft)
- - 10 min 4 UV-I 823 W/m 29,0 km/h
W-SW (5 Bft)
Durchschnitt _ 11,7 C 85 % 1010,5 hPa #4,8 mm 3,5 km/h (1 Bft) W-SW - #4:00 h 2 UV-I 237 W/m 12,7 km/h (3 Bft)